sensor_id;sensor_type;location;lat;lon;timestamp;temperature;humidity
4052;DHT22;2040;50.924;11.604;2023-03-14T00:01:29;9.20;99.90
4052;DHT22;2040;50.924;11.604;2023-03-14T00:03:55;9.20;99.90
4052;DHT22;2040;50.924;11.604;2023-03-14T00:06:20;9.20;99.90
4052;DHT22;2040;50.924;11.604;2023-03-14T00:08:47;9.20;99.90
4052;DHT22;2040;50.924;11.604;2023-03-14T00:11:20;9.20;99.90
4052;DHT22;2040;50.924;11.604;2023-03-14T00:13:52;9.10;99.90
4052;DHT22;2040;50.924;11.604;2023-03-14T00:16:19;9.10;99.90
4052;DHT22;2040;50.924;11.604;2023-03-14T00:18:44;9.20;99.90
4052;DHT22;2040;50.924;11.604;2023-03-14T00:21:11;9.20;99.90
4052;DHT22;2040;50.924;11.604;2023-03-14T00:23:38;9.20;99.90
4052;DHT22;2040;50.924;11.604;2023-03-14T00:26:07;9.20;99.90
4052;DHT22;2040;50.924;11.604;2023-03-14T00:28:33;9.20;99.90
4052;DHT22;2040;50.924;11.604;2023-03-14T00:30:58;9.20;99.90
4052;DHT22;2040;50.924;11.604;2023-03-14T00:33:25;9.20;99.90
4052;DHT22;2040;50.924;11.604;2023-03-14T00:36:01;9.10;99.90
4052;DHT22;2040;50.924;11.604;2023-03-14T00:38:27;9.10;99.90
4052;DHT22;2040;50.924;11.604;2023-03-14T00:40:53;9.00;99.90
4052;DHT22;2040;50.924;11.604;2023-03-14T00:43:20;9.00;99.90
4052;DHT22;2040;50.924;11.604;2023-03-14T00:45:48;9.10;99.90
4052;DHT22;2040;50.924;11.604;2023-03-14T00:48:13;9.10;99.90
4052;DHT22;2040;50.924;11.604;2023-03-14T00:50:39;9.00;99.90
4052;DHT22;2040;50.924;11.604;2023-03-14T00:53:04;9.10;99.90
4052;DHT22;2040;50.924;11.604;2023-03-14T00:55:30;9.20;99.90
4052;DHT22;2040;50.924;11.604;2023-03-14T00:57:56;9.10;99.90
4052;DHT22;2040;50.924;11.604;2023-03-14T01:00:22;9.10;99.90
4052;DHT22;2040;50.924;11.604;2023-03-14T01:02:47;9.10;99.90
4052;DHT22;2040;50.924;11.604;2023-03-14T01:05:13;9.10;99.90
4052;DHT22;2040;50.924;11.604;2023-03-14T01:07:38;9.20;99.90
4052;DHT22;2040;50.924;11.604;2023-03-14T01:10:06;9.20;99.90
4052;DHT22;2040;50.924;11.604;2023-03-14T01:12:32;9.20;99.90
4052;DHT22;2040;50.924;11.604;2023-03-14T01:14:58;9.20;99.90
4052;DHT22;2040;50.924;11.604;2023-03-14T01:17:23;9.20;99.90
4052;DHT22;2040;50.924;11.604;2023-03-14T01:19:49;9.20;99.90
4052;DHT22;2040;50.924;11.604;2023-03-14T01:22:14;9.20;99.90
4052;DHT22;2040;50.924;11.604;2023-03-14T01:24:40;9.10;99.90
4052;DHT22;2040;50.924;11.604;2023-03-14T01:27:05;9.20;99.90
4052;DHT22;2040;50.924;11.604;2023-03-14T01:29:31;9.30;99.90
4052;DHT22;2040;50.924;11.604;2023-03-14T01:31:57;9.30;99.90
4052;DHT22;2040;50.924;11.604;2023-03-14T01:34:22;9.30;99.90
4052;DHT22;2040;50.924;11.604;2023-03-14T01:36:48;9.30;99.90
4052;DHT22;2040;50.924;11.604;2023-03-14T01:39:13;9.60;99.90
4052;DHT22;2040;50.924;11.604;2023-03-14T01:41:40;9.60;99.90
4052;DHT22;2040;50.924;11.604;2023-03-14T01:44:09;9.70;99.90
4052;DHT22;2040;50.924;11.604;2023-03-14T01:46:39;9.60;99.90
4052;DHT22;2040;50.924;11.604;2023-03-14T01:49:25;9.60;99.90
4052;DHT22;2040;50.924;11.604;2023-03-14T01:52:08;9.50;99.90
4052;DHT22;2040;50.924;11.604;2023-03-14T01:54:47;9.60;99.90
4052;DHT22;2040;50.924;11.604;2023-03-14T01:57:19;9.50;99.90
4052;DHT22;2040;50.924;11.604;2023-03-14T02:00:03;9.50;99.90
4052;DHT22;2040;50.924;11.604;2023-03-14T02:02:35;9.60;99.90
4052;DHT22;2040;50.924;11.604;2023-03-14T02:05:02;9.70;99.90
4052;DHT22;2040;50.924;11.604;2023-03-14T02:07:42;9.60;99.90
4052;DHT22;2040;50.924;11.604;2023-03-14T02:10:11;9.60;99.90
4052;DHT22;2040;50.924;11.604;2023-03-14T02:12:37;9.60;99.90
4052;DHT22;2040;50.924;11.604;2023-03-14T02:15:04;9.50;99.90
4052;DHT22;2040;50.924;11.604;2023-03-14T02:17:30;9.60;99.90
4052;DHT22;2040;50.924;11.604;2023-03-14T02:20:10;9.60;99.90
4052;DHT22;2040;50.924;11.604;2023-03-14T02:22:40;9.60;99.90
4052;DHT22;2040;50.924;11.604;2023-03-14T02:27:40;9.60;99.90
4052;DHT22;2040;50.924;11.604;2023-03-14T02:30:21;9.60;99.90
4052;DHT22;2040;50.924;11.604;2023-03-14T02:32:51;9.50;99.90
4052;DHT22;2040;50.924;11.604;2023-03-14T02:35:21;9.40;99.90
4052;DHT22;2040;50.924;11.604;2023-03-14T02:37:49;9.50;99.90
4052;DHT22;2040;50.924;11.604;2023-03-14T02:40:16;9.50;99.90
4052;DHT22;2040;50.924;11.604;2023-03-14T02:42:41;9.60;99.90
4052;DHT22;2040;50.924;11.604;2023-03-14T02:47:33;9.50;99.90
4052;DHT22;2040;50.924;11.604;2023-03-14T02:50:08;9.50;99.90
4052;DHT22;2040;50.924;11.604;2023-03-14T02:52:34;9.50;99.90
4052;DHT22;2040;50.924;11.604;2023-03-14T02:55:00;9.60;99.90
4052;DHT22;2040;50.924;11.604;2023-03-14T02:57:25;9.50;99.90
4052;DHT22;2040;50.924;11.604;2023-03-14T02:59:51;9.50;99.90
4052;DHT22;2040;50.924;11.604;2023-03-14T03:02:17;9.60;99.90
4052;DHT22;2040;50.924;11.604;2023-03-14T03:04:42;9.70;99.90
4052;DHT22;2040;50.924;11.604;2023-03-14T03:07:08;9.60;99.90
4052;DHT22;2040;50.924;11.604;2023-03-14T03:09:33;9.60;99.90
4052;DHT22;2040;50.924;11.604;2023-03-14T03:11:59;9.50;99.90
4052;DHT22;2040;50.924;11.604;2023-03-14T03:14:25;9.60;99.90
4052;DHT22;2040;50.924;11.604;2023-03-14T03:16:50;9.50;99.90
4052;DHT22;2040;50.924;11.604;2023-03-14T03:19:16;9.50;99.90
4052;DHT22;2040;50.924;11.604;2023-03-14T03:21:43;9.50;99.90
4052;DHT22;2040;50.924;11.604;2023-03-14T03:24:09;9.40;99.90
4052;DHT22;2040;50.924;11.604;2023-03-14T03:26:36;9.40;99.90
4052;DHT22;2040;50.924;11.604;2023-03-14T03:29:02;9.40;99.90
4052;DHT22;2040;50.924;11.604;2023-03-14T03:31:27;9.40;99.90
4052;DHT22;2040;50.924;11.604;2023-03-14T03:33:53;9.40;99.90
4052;DHT22;2040;50.924;11.604;2023-03-14T03:36:23;9.40;99.90
4052;DHT22;2040;50.924;11.604;2023-03-14T03:38:49;9.40;99.90
4052;DHT22;2040;50.924;11.604;2023-03-14T03:41:15;9.50;99.90
4052;DHT22;2040;50.924;11.604;2023-03-14T03:43:40;9.50;99.90
4052;DHT22;2040;50.924;11.604;2023-03-14T03:46:07;9.40;99.90
4052;DHT22;2040;50.924;11.604;2023-03-14T03:48:36;9.40;99.90
4052;DHT22;2040;50.924;11.604;2023-03-14T03:51:01;9.40;99.90
4052;DHT22;2040;50.924;11.604;2023-03-14T03:53:27;9.40;99.90
4052;DHT22;2040;50.924;11.604;2023-03-14T03:55:53;9.50;99.90
4052;DHT22;2040;50.924;11.604;2023-03-14T03:58:19;9.50;99.90
4052;DHT22;2040;50.924;11.604;2023-03-14T04:00:44;9.60;99.90
4052;DHT22;2040;50.924;11.604;2023-03-14T04:03:10;9.60;99.90
4052;DHT22;2040;50.924;11.604;2023-03-14T04:05:35;9.60;99.90
4052;DHT22;2040;50.924;11.604;2023-03-14T04:08:01;9.50;99.90
4052;DHT22;2040;50.924;11.604;2023-03-14T04:10:28;9.50;99.90
4052;DHT22;2040;50.924;11.604;2023-03-14T04:12:53;9.50;99.90
4052;DHT22;2040;50.924;11.604;2023-03-14T04:15:19;9.50;99.90
4052;DHT22;2040;50.924;11.604;2023-03-14T04:17:44;9.50;99.90
4052;DHT22;2040;50.924;11.604;2023-03-14T04:20:10;9.60;99.90
4052;DHT22;2040;50.924;11.604;2023-03-14T04:22:37;9.50;99.90
4052;DHT22;2040;50.924;11.604;2023-03-14T04:25:03;9.50;99.90
4052;DHT22;2040;50.924;11.604;2023-03-14T04:27:29;9.40;99.90
4052;DHT22;2040;50.924;11.604;2023-03-14T04:29:55;9.40;99.90
4052;DHT22;2040;50.924;11.604;2023-03-14T04:32:20;9.40;99.90
4052;DHT22;2040;50.924;11.604;2023-03-14T04:34:46;9.40;99.90
4052;DHT22;2040;50.924;11.604;2023-03-14T04:37:12;9.40;99.90
4052;DHT22;2040;50.924;11.604;2023-03-14T04:39:37;9.40;99.90
4052;DHT22;2040;50.924;11.604;2023-03-14T04:42:03;9.40;99.90
4052;DHT22;2040;50.924;11.604;2023-03-14T04:44:28;9.40;99.90
4052;DHT22;2040;50.924;11.604;2023-03-14T04:46:54;9.30;99.90
4052;DHT22;2040;50.924;11.604;2023-03-14T04:49:20;9.40;99.90
4052;DHT22;2040;50.924;11.604;2023-03-14T04:51:45;9.30;99.90
4052;DHT22;2040;50.924;11.604;2023-03-14T04:54:11;9.30;99.90
4052;DHT22;2040;50.924;11.604;2023-03-14T04:56:36;9.20;99.90
4052;DHT22;2040;50.924;11.604;2023-03-14T04:59:03;9.20;99.90
4052;DHT22;2040;50.924;11.604;2023-03-14T05:01:28;9.30;99.90
4052;DHT22;2040;50.924;11.604;2023-03-14T05:03:54;9.20;99.90
4052;DHT22;2040;50.924;11.604;2023-03-14T05:06:20;9.20;99.90
4052;DHT22;2040;50.924;11.604;2023-03-14T05:08:45;9.20;99.90
4052;DHT22;2040;50.924;11.604;2023-03-14T05:11:11;9.10;99.90
4052;DHT22;2040;50.924;11.604;2023-03-14T05:13:38;9.20;99.90
4052;DHT22;2040;50.924;11.604;2023-03-14T05:16:08;9.10;99.90
4052;DHT22;2040;50.924;11.604;2023-03-14T05:18:34;9.00;99.90
4052;DHT22;2040;50.924;11.604;2023-03-14T05:20:59;9.00;99.90
4052;DHT22;2040;50.924;11.604;2023-03-14T05:23:25;9.30;99.90
4052;DHT22;2040;50.924;11.604;2023-03-14T05:25:51;9.30;99.90
4052;DHT22;2040;50.924;11.604;2023-03-14T05:28:16;9.30;99.90
4052;DHT22;2040;50.924;11.604;2023-03-14T05:30:42;9.30;99.90
4052;DHT22;2040;50.924;11.604;2023-03-14T05:33:07;9.30;99.90
4052;DHT22;2040;50.924;11.604;2023-03-14T05:35:33;9.30;99.90
4052;DHT22;2040;50.924;11.604;2023-03-14T05:37:59;9.40;99.90
4052;DHT22;2040;50.924;11.604;2023-03-14T05:40:25;9.30;99.90
4052;DHT22;2040;50.924;11.604;2023-03-14T05:42:50;9.40;99.90
4052;DHT22;2040;50.924;11.604;2023-03-14T05:45:16;9.30;99.90
4052;DHT22;2040;50.924;11.604;2023-03-14T05:47:41;9.30;99.90
4052;DHT22;2040;50.924;11.604;2023-03-14T05:50:07;9.40;99.90
4052;DHT22;2040;50.924;11.604;2023-03-14T05:52:33;9.40;99.90
4052;DHT22;2040;50.924;11.604;2023-03-14T05:54:59;9.20;99.90
4052;DHT22;2040;50.924;11.604;2023-03-14T05:57:24;9.20;99.90
4052;DHT22;2040;50.924;11.604;2023-03-14T05:59:50;9.10;99.90
4052;DHT22;2040;50.924;11.604;2023-03-14T06:02:15;9.10;99.90
4052;DHT22;2040;50.924;11.604;2023-03-14T06:04:41;9.00;99.90
4052;DHT22;2040;50.924;11.604;2023-03-14T06:07:06;9.10;99.90
4052;DHT22;2040;50.924;11.604;2023-03-14T06:09:32;9.10;99.90
4052;DHT22;2040;50.924;11.604;2023-03-14T06:11:57;9.10;99.90
4052;DHT22;2040;50.924;11.604;2023-03-14T06:14:23;9.10;99.90
4052;DHT22;2040;50.924;11.604;2023-03-14T06:16:48;9.20;99.90
4052;DHT22;2040;50.924;11.604;2023-03-14T06:19:14;9.20;99.90
4052;DHT22;2040;50.924;11.604;2023-03-14T06:21:40;9.30;99.90
4052;DHT22;2040;50.924;11.604;2023-03-14T06:24:06;9.20;99.90
4052;DHT22;2040;50.924;11.604;2023-03-14T06:26:31;9.20;99.90
4052;DHT22;2040;50.924;11.604;2023-03-14T06:28:57;9.20;99.90
4052;DHT22;2040;50.924;11.604;2023-03-14T06:31:26;9.20;99.90
4052;DHT22;2040;50.924;11.604;2023-03-14T06:33:52;9.20;99.90
4052;DHT22;2040;50.924;11.604;2023-03-14T06:36:17;9.30;99.90
4052;DHT22;2040;50.924;11.604;2023-03-14T06:38:43;9.30;99.90
4052;DHT22;2040;50.924;11.604;2023-03-14T06:41:08;9.50;99.90
4052;DHT22;2040;50.924;11.604;2023-03-14T06:43:34;9.40;99.90
4052;DHT22;2040;50.924;11.604;2023-03-14T06:45:59;9.40;99.90
4052;DHT22;2040;50.924;11.604;2023-03-14T06:48:25;9.50;99.90
4052;DHT22;2040;50.924;11.604;2023-03-14T06:50:51;9.50;99.90
4052;DHT22;2040;50.924;11.604;2023-03-14T06:53:16;9.40;99.90
4052;DHT22;2040;50.924;11.604;2023-03-14T06:55:42;9.40;99.90
4052;DHT22;2040;50.924;11.604;2023-03-14T06:58:08;9.50;99.90
4052;DHT22;2040;50.924;11.604;2023-03-14T07:00:34;9.40;99.90
4052;DHT22;2040;50.924;11.604;2023-03-14T07:03:01;9.50;99.90
4052;DHT22;2040;50.924;11.604;2023-03-14T07:05:26;9.50;99.90
4052;DHT22;2040;50.924;11.604;2023-03-14T07:07:52;9.50;99.90
4052;DHT22;2040;50.924;11.604;2023-03-14T07:10:17;9.60;99.90
4052;DHT22;2040;50.924;11.604;2023-03-14T07:12:43;9.60;99.90
4052;DHT22;2040;50.924;11.604;2023-03-14T07:15:09;9.50;99.90
4052;DHT22;2040;50.924;11.604;2023-03-14T07:17:34;9.50;99.90
4052;DHT22;2040;50.924;11.604;2023-03-14T07:20:00;9.50;99.90
4052;DHT22;2040;50.924;11.604;2023-03-14T07:22:26;9.50;99.90
4052;DHT22;2040;50.924;11.604;2023-03-14T07:24:52;9.60;99.90
4052;DHT22;2040;50.924;11.604;2023-03-14T07:27:17;9.60;99.90
4052;DHT22;2040;50.924;11.604;2023-03-14T07:29:43;9.60;99.90
4052;DHT22;2040;50.924;11.604;2023-03-14T07:32:08;9.60;99.90
4052;DHT22;2040;50.924;11.604;2023-03-14T07:34:35;9.60;99.90
4052;DHT22;2040;50.924;11.604;2023-03-14T07:37:00;9.50;99.90
4052;DHT22;2040;50.924;11.604;2023-03-14T07:39:26;9.50;99.90
4052;DHT22;2040;50.924;11.604;2023-03-14T07:41:51;9.50;99.90
4052;DHT22;2040;50.924;11.604;2023-03-14T07:44:17;9.60;99.90
4052;DHT22;2040;50.924;11.604;2023-03-14T07:46:42;9.60;99.90
4052;DHT22;2040;50.924;11.604;2023-03-14T07:49:08;9.60;99.90
4052;DHT22;2040;50.924;11.604;2023-03-14T07:51:34;9.60;99.90
4052;DHT22;2040;50.924;11.604;2023-03-14T07:53:59;9.70;99.90
4052;DHT22;2040;50.924;11.604;2023-03-14T07:56:25;9.70;99.90
4052;DHT22;2040;50.924;11.604;2023-03-14T07:58:50;9.90;99.90
4052;DHT22;2040;50.924;11.604;2023-03-14T08:01:16;10.00;99.90
4052;DHT22;2040;50.924;11.604;2023-03-14T08:03:41;10.10;99.90
4052;DHT22;2040;50.924;11.604;2023-03-14T08:06:07;10.20;99.90
4052;DHT22;2040;50.924;11.604;2023-03-14T08:08:32;10.20;99.90
4052;DHT22;2040;50.924;11.604;2023-03-14T08:11:06;10.20;99.90
4052;DHT22;2040;50.924;11.604;2023-03-14T08:13:34;10.30;99.90
4052;DHT22;2040;50.924;11.604;2023-03-14T08:16:00;10.40;99.90
4052;DHT22;2040;50.924;11.604;2023-03-14T08:18:25;10.40;99.90
4052;DHT22;2040;50.924;11.604;2023-03-14T08:20:51;10.40;99.90
4052;DHT22;2040;50.924;11.604;2023-03-14T08:23:16;10.50;99.90
4052;DHT22;2040;50.924;11.604;2023-03-14T08:25:42;10.50;99.90
4052;DHT22;2040;50.924;11.604;2023-03-14T08:28:08;10.60;99.90
4052;DHT22;2040;50.924;11.604;2023-03-14T08:30:34;10.70;99.90
4052;DHT22;2040;50.924;11.604;2023-03-14T08:33:03;10.70;99.90
4052;DHT22;2040;50.924;11.604;2023-03-14T08:35:28;10.70;99.90
4052;DHT22;2040;50.924;11.604;2023-03-14T08:37:54;10.70;99.90
4052;DHT22;2040;50.924;11.604;2023-03-14T08:40:19;10.70;99.90
4052;DHT22;2040;50.924;11.604;2023-03-14T08:42:45;10.70;99.90
4052;DHT22;2040;50.924;11.604;2023-03-14T08:45:13;10.80;99.90
4052;DHT22;2040;50.924;11.604;2023-03-14T08:47:39;10.80;99.90
4052;DHT22;2040;50.924;11.604;2023-03-14T08:50:05;10.70;99.90
4052;DHT22;2040;50.924;11.604;2023-03-14T08:52:32;10.70;99.90
4052;DHT22;2040;50.924;11.604;2023-03-14T08:54:58;10.80;99.90
4052;DHT22;2040;50.924;11.604;2023-03-14T08:57:24;10.80;99.90
4052;DHT22;2040;50.924;11.604;2023-03-14T08:59:53;10.90;99.90
4052;DHT22;2040;50.924;11.604;2023-03-14T09:02:20;11.10;99.90
4052;DHT22;2040;50.924;11.604;2023-03-14T09:04:46;11.20;99.90
4052;DHT22;2040;50.924;11.604;2023-03-14T09:07:12;11.40;99.90
4052;DHT22;2040;50.924;11.604;2023-03-14T09:09:37;11.50;99.90
4052;DHT22;2040;50.924;11.604;2023-03-14T09:12:03;11.50;99.90
4052;DHT22;2040;50.924;11.604;2023-03-14T09:14:30;11.60;99.90
4052;DHT22;2040;50.924;11.604;2023-03-14T09:16:55;11.60;99.90
4052;DHT22;2040;50.924;11.604;2023-03-14T09:19:21;11.40;99.90
4052;DHT22;2040;50.924;11.604;2023-03-14T09:21:47;11.30;99.90
4052;DHT22;2040;50.924;11.604;2023-03-14T09:24:12;11.30;99.90
4052;DHT22;2040;50.924;11.604;2023-03-14T09:26:38;11.30;99.90
4052;DHT22;2040;50.924;11.604;2023-03-14T09:29:04;11.30;99.90
4052;DHT22;2040;50.924;11.604;2023-03-14T09:31:29;11.20;99.90
4052;DHT22;2040;50.924;11.604;2023-03-14T09:33:55;11.20;99.90
4052;DHT22;2040;50.924;11.604;2023-03-14T09:36:21;11.20;99.90
4052;DHT22;2040;50.924;11.604;2023-03-14T09:38:47;11.20;99.90
4052;DHT22;2040;50.924;11.604;2023-03-14T09:44:06;11.30;99.90
4052;DHT22;2040;50.924;11.604;2023-03-14T09:46:36;11.30;99.90
4052;DHT22;2040;50.924;11.604;2023-03-14T09:49:10;11.30;99.90
4052;DHT22;2040;50.924;11.604;2023-03-14T09:51:36;11.40;99.90
4052;DHT22;2040;50.924;11.604;2023-03-14T09:54:04;11.50;99.90
4052;DHT22;2040;50.924;11.604;2023-03-14T09:56:32;11.50;99.90
4052;DHT22;2040;50.924;11.604;2023-03-14T09:59:00;11.70;99.90
4052;DHT22;2040;50.924;11.604;2023-03-14T10:01:31;11.80;99.90
4052;DHT22;2040;50.924;11.604;2023-03-14T10:04:00;11.70;99.90
4052;DHT22;2040;50.924;11.604;2023-03-14T10:06:29;11.60;99.90
4052;DHT22;2040;50.924;11.604;2023-03-14T10:08:56;11.50;99.90
4052;DHT22;2040;50.924;11.604;2023-03-14T10:11:23;11.50;99.90
4052;DHT22;2040;50.924;11.604;2023-03-14T10:14:10;11.70;99.90
4052;DHT22;2040;50.924;11.604;2023-03-14T10:16:43;11.70;99.90
4052;DHT22;2040;50.924;11.604;2023-03-14T10:19:11;11.90;99.90
4052;DHT22;2040;50.924;11.604;2023-03-14T10:21:42;11.90;99.90
4052;DHT22;2040;50.924;11.604;2023-03-14T10:24:29;11.90;99.90
4052;DHT22;2040;50.924;11.604;2023-03-14T10:27:04;12.00;99.90
4052;DHT22;2040;50.924;11.604;2023-03-14T10:29:33;12.00;99.90
4052;DHT22;2040;50.924;11.604;2023-03-14T10:32:01;12.10;99.90
4052;DHT22;2040;50.924;11.604;2023-03-14T10:34:33;12.10;99.90
4052;DHT22;2040;50.924;11.604;2023-03-14T10:37:17;11.90;99.90
4052;DHT22;2040;50.924;11.604;2023-03-14T10:39:47;11.90;99.90
4052;DHT22;2040;50.924;11.604;2023-03-14T10:42:26;11.80;99.90
4052;DHT22;2040;50.924;11.604;2023-03-14T10:44:59;11.60;99.90
4052;DHT22;2040;50.924;11.604;2023-03-14T10:47:26;11.50;99.90
4052;DHT22;2040;50.924;11.604;2023-03-14T10:49:54;11.40;99.90
4052;DHT22;2040;50.924;11.604;2023-03-14T10:52:23;11.40;99.90
4052;DHT22;2040;50.924;11.604;2023-03-14T10:54:56;11.50;99.90
4052;DHT22;2040;50.924;11.604;2023-03-14T10:57:22;11.50;99.90
4052;DHT22;2040;50.924;11.604;2023-03-14T10:59:48;11.70;99.90
4052;DHT22;2040;50.924;11.604;2023-03-14T11:02:39;11.80;99.90
4052;DHT22;2040;50.924;11.604;2023-03-14T11:05:17;11.90;99.90
4052;DHT22;2040;50.924;11.604;2023-03-14T11:07:45;12.30;99.90
4052;DHT22;2040;50.924;11.604;2023-03-14T11:10:26;12.70;99.90
4052;DHT22;2040;50.924;11.604;2023-03-14T11:12:57;13.00;99.90
4052;DHT22;2040;50.924;11.604;2023-03-14T11:15:49;13.20;99.90
4052;DHT22;2040;50.924;11.604;2023-03-14T11:21:07;13.20;99.90
4052;DHT22;2040;50.924;11.604;2023-03-14T11:26:37;12.90;99.90
4052;DHT22;2040;50.924;11.604;2023-03-14T11:31:48;12.70;99.90
4052;DHT22;2040;50.924;11.604;2023-03-14T11:34:28;12.60;99.90
4052;DHT22;2040;50.924;11.604;2023-03-14T11:37:11;12.60;99.90
4052;DHT22;2040;50.924;11.604;2023-03-14T11:39:40;12.60;99.90
4052;DHT22;2040;50.924;11.604;2023-03-14T11:42:11;12.40;99.90
4052;DHT22;2040;50.924;11.604;2023-03-14T11:44:38;12.40;99.90
4052;DHT22;2040;50.924;11.604;2023-03-14T11:47:24;12.60;99.90
4052;DHT22;2040;50.924;11.604;2023-03-14T11:50:05;12.80;99.90
4052;DHT22;2040;50.924;11.604;2023-03-14T11:52:37;12.70;99.90
4052;DHT22;2040;50.924;11.604;2023-03-14T11:55:20;12.50;99.90
4052;DHT22;2040;50.924;11.604;2023-03-14T11:57:48;12.60;99.90
4052;DHT22;2040;50.924;11.604;2023-03-14T12:00:20;12.60;99.90
4052;DHT22;2040;50.924;11.604;2023-03-14T12:03:14;12.50;99.90
4052;DHT22;2040;50.924;11.604;2023-03-14T12:11:48;14.10;99.90
4052;DHT22;2040;50.924;11.604;2023-03-14T12:14:23;14.20;99.90
4052;DHT22;2040;50.924;11.604;2023-03-14T12:16:54;13.90;99.90
4052;DHT22;2040;50.924;11.604;2023-03-14T12:21:50;13.30;99.90
4052;DHT22;2040;50.924;11.604;2023-03-14T12:24:20;13.00;99.90
4052;DHT22;2040;50.924;11.604;2023-03-14T12:26:54;13.30;99.90
4052;DHT22;2040;50.924;11.604;2023-03-14T12:29:20;13.60;99.90
4052;DHT22;2040;50.924;11.604;2023-03-14T12:32:12;13.50;99.90
4052;DHT22;2040;50.924;11.604;2023-03-14T12:34:46;13.50;99.90
4052;DHT22;2040;50.924;11.604;2023-03-14T12:37:42;13.40;99.90
4052;DHT22;2040;50.924;11.604;2023-03-14T12:40:21;13.50;99.90
4052;DHT22;2040;50.924;11.604;2023-03-14T12:43:01;13.20;99.90
4052;DHT22;2040;50.924;11.604;2023-03-14T12:45:33;13.10;99.90
4052;DHT22;2040;50.924;11.604;2023-03-14T12:48:19;13.50;99.90
4052;DHT22;2040;50.924;11.604;2023-03-14T12:50:54;14.00;99.90
4052;DHT22;2040;50.924;11.604;2023-03-14T12:53:39;14.20;99.90
4052;DHT22;2040;50.924;11.604;2023-03-14T13:01:21;14.50;99.90
4052;DHT22;2040;50.924;11.604;2023-03-14T13:03:57;15.10;99.90
4052;DHT22;2040;50.924;11.604;2023-03-14T13:09:35;15.40;99.90
4052;DHT22;2040;50.924;11.604;2023-03-14T13:12:03;15.00;99.90
4052;DHT22;2040;50.924;11.604;2023-03-14T13:14:34;14.60;99.90
4052;DHT22;2040;50.924;11.604;2023-03-14T13:17:01;14.50;99.90
4052;DHT22;2040;50.924;11.604;2023-03-14T13:19:30;14.90;99.90
4052;DHT22;2040;50.924;11.604;2023-03-14T13:22:06;14.70;99.90
4052;DHT22;2040;50.924;11.604;2023-03-14T13:24:38;14.40;99.90
4052;DHT22;2040;50.924;11.604;2023-03-14T13:27:04;14.10;99.90
4052;DHT22;2040;50.924;11.604;2023-03-14T13:29:33;14.00;99.90
4052;DHT22;2040;50.924;11.604;2023-03-14T13:32:12;14.00;99.90
4052;DHT22;2040;50.924;11.604;2023-03-14T13:34:38;13.80;99.90
4052;DHT22;2040;50.924;11.604;2023-03-14T13:37:04;13.70;99.90
4052;DHT22;2040;50.924;11.604;2023-03-14T13:39:29;13.60;99.90
4052;DHT22;2040;50.924;11.604;2023-03-14T13:42:00;13.60;99.90
4052;DHT22;2040;50.924;11.604;2023-03-14T13:44:30;13.70;99.90
4052;DHT22;2040;50.924;11.604;2023-03-14T13:47:01;13.60;99.90
4052;DHT22;2040;50.924;11.604;2023-03-14T13:49:29;13.40;99.90
4052;DHT22;2040;50.924;11.604;2023-03-14T13:51:56;13.20;99.90
4052;DHT22;2040;50.924;11.604;2023-03-14T13:54:22;13.10;99.90
4052;DHT22;2040;50.924;11.604;2023-03-14T13:57:03;12.90;99.90
4052;DHT22;2040;50.924;11.604;2023-03-14T13:59:31;12.90;99.90
4052;DHT22;2040;50.924;11.604;2023-03-14T14:02:04;12.90;99.90
4052;DHT22;2040;50.924;11.604;2023-03-14T14:04:36;12.80;99.90
4052;DHT22;2040;50.924;11.604;2023-03-14T14:07:08;12.80;99.90
4052;DHT22;2040;50.924;11.604;2023-03-14T14:09:39;12.80;99.90
4052;DHT22;2040;50.924;11.604;2023-03-14T14:12:10;12.80;99.90
4052;DHT22;2040;50.924;11.604;2023-03-14T14:14:47;12.70;99.90
4052;DHT22;2040;50.924;11.604;2023-03-14T14:17:20;12.70;99.90
4052;DHT22;2040;50.924;11.604;2023-03-14T14:19:47;12.50;99.90
4052;DHT22;2040;50.924;11.604;2023-03-14T14:22:13;12.20;99.90
4052;DHT22;2040;50.924;11.604;2023-03-14T14:24:39;11.90;99.90
4052;DHT22;2040;50.924;11.604;2023-03-14T14:27:17;11.80;99.90
4052;DHT22;2040;50.924;11.604;2023-03-14T14:29:43;11.40;99.90
4052;DHT22;2040;50.924;11.604;2023-03-14T14:32:14;11.20;99.90
4052;DHT22;2040;50.924;11.604;2023-03-14T14:34:42;11.10;99.90
4052;DHT22;2040;50.924;11.604;2023-03-14T14:37:26;10.90;99.90
4052;DHT22;2040;50.924;11.604;2023-03-14T14:39:56;10.80;99.90
4052;DHT22;2040;50.924;11.604;2023-03-14T14:42:26;10.60;99.90
4052;DHT22;2040;50.924;11.604;2023-03-14T14:44:53;10.40;99.90
4052;DHT22;2040;50.924;11.604;2023-03-14T14:47:22;10.20;99.90
4052;DHT22;2040;50.924;11.604;2023-03-14T14:49:49;10.20;99.90
4052;DHT22;2040;50.924;11.604;2023-03-14T14:52:31;10.00;99.90
4052;DHT22;2040;50.924;11.604;2023-03-14T14:55:00;9.90;99.90
4052;DHT22;2040;50.924;11.604;2023-03-14T14:57:31;9.80;99.90
4052;DHT22;2040;50.924;11.604;2023-03-14T15:00:08;9.50;99.90
4052;DHT22;2040;50.924;11.604;2023-03-14T15:02:46;8.40;99.90
4052;DHT22;2040;50.924;11.604;2023-03-14T15:05:16;7.50;99.90
4052;DHT22;2040;50.924;11.604;2023-03-14T15:07:42;7.30;99.90
4052;DHT22;2040;50.924;11.604;2023-03-14T15:10:13;7.10;99.90
4052;DHT22;2040;50.924;11.604;2023-03-14T15:12:40;7.00;99.90
4052;DHT22;2040;50.924;11.604;2023-03-14T15:15:06;7.00;99.90
4052;DHT22;2040;50.924;11.604;2023-03-14T15:17:32;7.20;99.90
4052;DHT22;2040;50.924;11.604;2023-03-14T15:19:58;7.10;99.90
4052;DHT22;2040;50.924;11.604;2023-03-14T15:22:24;7.00;99.90
4052;DHT22;2040;50.924;11.604;2023-03-14T15:24:49;7.00;99.90
4052;DHT22;2040;50.924;11.604;2023-03-14T15:27:17;7.00;99.90
4052;DHT22;2040;50.924;11.604;2023-03-14T15:29:43;7.00;99.90
4052;DHT22;2040;50.924;11.604;2023-03-14T15:32:14;6.90;99.90
4052;DHT22;2040;50.924;11.604;2023-03-14T15:34:40;6.80;99.90
4052;DHT22;2040;50.924;11.604;2023-03-14T15:37:14;6.70;99.90
4052;DHT22;2040;50.924;11.604;2023-03-14T15:39:41;6.60;99.90
4052;DHT22;2040;50.924;11.604;2023-03-14T15:42:07;6.50;99.90
4052;DHT22;2040;50.924;11.604;2023-03-14T15:44:33;6.30;99.90
4052;DHT22;2040;50.924;11.604;2023-03-14T15:46:58;6.10;99.90
4052;DHT22;2040;50.924;11.604;2023-03-14T15:49:24;5.80;99.90
4052;DHT22;2040;50.924;11.604;2023-03-14T15:51:49;5.60;99.90
4052;DHT22;2040;50.924;11.604;2023-03-14T15:54:15;5.60;99.90
4052;DHT22;2040;50.924;11.604;2023-03-14T15:56:40;5.50;99.90
4052;DHT22;2040;50.924;11.604;2023-03-14T15:59:06;5.40;99.90
4052;DHT22;2040;50.924;11.604;2023-03-14T16:01:31;5.20;99.90
4052;DHT22;2040;50.924;11.604;2023-03-14T16:03:57;5.00;99.90
4052;DHT22;2040;50.924;11.604;2023-03-14T16:06:23;4.80;99.90
4052;DHT22;2040;50.924;11.604;2023-03-14T16:08:48;4.70;99.90
4052;DHT22;2040;50.924;11.604;2023-03-14T16:11:14;4.60;99.90
4052;DHT22;2040;50.924;11.604;2023-03-14T16:13:43;4.60;99.90
4052;DHT22;2040;50.924;11.604;2023-03-14T16:16:09;4.60;99.90
4052;DHT22;2040;50.924;11.604;2023-03-14T16:18:36;4.60;99.90
4052;DHT22;2040;50.924;11.604;2023-03-14T16:21:11;4.60;99.90
4052;DHT22;2040;50.924;11.604;2023-03-14T16:23:37;4.60;99.90
4052;DHT22;2040;50.924;11.604;2023-03-14T16:26:08;4.60;99.90
4052;DHT22;2040;50.924;11.604;2023-03-14T16:28:34;4.60;99.90
4052;DHT22;2040;50.924;11.604;2023-03-14T16:31:05;4.60;99.90
4052;DHT22;2040;50.924;11.604;2023-03-14T16:33:32;4.50;99.90
4052;DHT22;2040;50.924;11.604;2023-03-14T16:36:00;4.50;99.90